Погода Селефунна неделю

Кгатленг, Ботсвана

20 - 26 июля
  • 20июля
    Сегодня
    +9°
    +31°
    Ясно и безоблачно
    ВремяПогодаТемператураВлажностьДавлениеВетер, м/сВероятность осадков
    02:00Ясно и безоблачно+11°C26 %689 мм2.6 м/с1 %
    05:00Ясно и безоблачно+9°C32 %688 мм0.0 м/с1 %
    08:00Ясно и безоблачно+14°C29 %691 мм0.0 м/с1 %
    11:00Ясно и безоблачно+27°C13 %694 мм1.3 м/с1 %
    14:00Ясно и безоблачно+30°C9 %691 мм2.4 м/с1 %
    17:00Ясно и безоблачно+29°C10 %691 мм1.0 м/с1 %
    20:00Ясно и безоблачно+18°C15 %689 мм0.7 м/с1 %
    23:00Ясно и безоблачно+15°C20 %690 мм0.6 м/с1 %
  • 21июля
    Воскресенье
    +9°
    +30°
    Ясно и безоблачно
    ВремяПогодаТемператураВлажностьДавлениеВетер, м/сВероятность осадков
    02:00Ясно и безоблачно+11°C27 %689 мм2.0 м/с1 %
    05:00Ясно и безоблачно+10°C33 %689 мм0.1 м/с1 %
    08:00Ясно и безоблачно+14°C38 %692 мм0.8 м/с1 %
    11:00Ясно и безоблачно+25°C24 %694 мм2.9 м/с1 %
    14:00Ясно и безоблачно+29°C16 %693 мм3.8 м/с1 %
    17:00Ясно и безоблачно+28°C18 %692 мм3.0 м/с1 %
    20:00Ясно и безоблачно+18°C42 %692 мм2.1 м/с1 %
    23:00Ясно и безоблачно+15°C61 %692 мм4.3 м/с1 %
  • 22июля
    Понедельник
    +8°
    +30°
    Ясно и безоблачно
    ВремяПогодаТемператураВлажностьДавлениеВетер, м/сВероятность осадков
    02:00Ясно и безоблачно+12°C72 %691 мм3.2 м/с1 %
    05:00Ясно и безоблачно+9°C87 %691 мм0.7 м/с1 %
    08:00Ясно и безоблачно+13°C76 %693 мм1.8 м/с1 %
    11:00Ясно и безоблачно+23°C42 %695 мм3.0 м/с1 %
    14:00Ясно и безоблачно+29°C22 %693 мм2.9 м/с1 %
    17:00Ясно и безоблачно+29°C16 %693 мм1.6 м/с1 %
    20:00Практически безоблачно+18°C33 %692 мм1.6 м/с1 %
    23:00Практически безоблачно+14°C48 %692 мм2.8 м/с1 %
  • 23июля
    Вторник
    +10°
    +32°
    Ясно и безоблачно
    ВремяПогодаТемператураВлажностьДавлениеВетер, м/сВероятность осадков
    02:00Ясно и безоблачно+13°C52 %692 мм0.2 м/с1 %
    05:00Ясно и безоблачно+9°C71 %691 мм0.3 м/с1 %
    08:00Ясно и безоблачно+14°C58 %693 мм0.8 м/с1 %
    11:00Ясно и безоблачно+26°C30 %696 мм2.4 м/с1 %
    14:00Ясно и безоблачно+31°C16 %694 мм3.3 м/с1 %
    17:00Ясно и безоблачно+30°C12 %693 мм0.9 м/с1 %
    20:00Ясно и безоблачно+19°C19 %691 мм0.9 м/с1 %
    23:00Ясно и безоблачно+14°C31 %691 мм2.8 м/с1 %
  • 24июля
    Среда
    +9°
    +33°
    Ясно и безоблачно
    ВремяПогодаТемператураВлажностьДавлениеВетер, м/сВероятность осадков
    02:00Ясно и безоблачно+12°C36 %690 мм2.7 м/с1 %
    05:00Ясно и безоблачно+11°C34 %689 мм0.0 м/с1 %
    08:00Ясно и безоблачно+15°C28 %691 мм0.4 м/с1 %
    11:00Ясно и безоблачно+29°C10 %694 мм1.9 м/с1 %
    14:00Ясно и безоблачно+32°C5 %692 мм3.7 м/с1 %
    17:00Ясно и безоблачно+31°C5 %691 мм1.9 м/с1 %
    20:00Ясно и безоблачно+19°C6 %690 мм0.5 м/с1 %
    23:00Ясно и безоблачно+14°C9 %689 мм2.6 м/с1 %
Мы используем cookies
Соглашаюсь